Montadas, Brazil
Current Conditions -  °F | °C
As of 4:00 PM on Sunday 23 Nov 2014 (Local Time) from SBKG Reporting Station
Few Clouds Few Clouds  
Wind Chill: 84°   Ceiling: Unl
Heat Index: 84°   Visibility: 6mi
Dew Point: 61°   Wind: 15mph
Humidity: 45%   Direction: 90°E
Pressure: 29.94"   Gusts: NA
Location:  7.14°S, 35.91°W
Report Text: SBKG 231900Z 09013KT 9999 FEW040 29/16 Q1014
Loading
Personal Weather Stations






























Interactive Weather Map New forecast layout! Learn more

10-Day Weather Forecast

Advertisements
Track Severe Weather on mobile